Terminal Aerodrome Forecast
Issued by NWS

Current Version | Previous Version | Text Only | Print | Product List | Glossary Off
Versions: 1 2 3 4 5 6 7 8 9 10 11 12 13 14 15 16 17 18 19 20 21 22 23 24 25 26 27 28 29 30 31 32 33 34 35 36 37 38 39 40 41 42 43

000
FTUS41 KRNK 262327
TAFLWB
TAF
KLWB 262327Z 2700/2724 00000KT P6SM SCT022 OVC030
     FM270500 25003KT 2SM -SN BR OVC006
     FM271400 32006KT 6SM -SHSN OVC025
     FM271900 32006KT P6SM OVC050=

USA.gov is the U.S. government's official web portal to all federal, state and local government web resources and services.